createdAt,value
2023-03-30T00:01:07.513Z,7.90
2023-03-30T00:03:34.731Z,7.63
2023-03-30T00:06:05.935Z,8.70
2023-03-30T00:08:33.560Z,6.93
2023-03-30T00:11:13.408Z,7.60
2023-03-30T00:13:41.603Z,6.23
2023-03-30T00:16:12.986Z,5.70
2023-03-30T00:18:41.252Z,6.67
2023-03-30T00:21:09.802Z,7.70
2023-03-30T00:23:38.344Z,6.40
2023-03-30T00:26:06.111Z,6.90
2023-03-30T00:28:33.624Z,7.93
2023-03-30T00:31:00.989Z,6.70
2023-03-30T00:33:43.998Z,6.23
2023-03-30T00:36:13.612Z,6.50
2023-03-30T00:38:41.068Z,6.47
2023-03-30T00:41:08.425Z,6.30
2023-03-30T00:43:35.634Z,6.57
2023-03-30T00:46:02.878Z,7.03
2023-03-30T00:48:37.099Z,6.67
2023-03-30T00:51:11.458Z,7.07
2023-03-30T00:53:47.182Z,6.87
2023-03-30T00:56:19.783Z,6.30
2023-03-30T00:58:47.476Z,7.00
2023-03-30T01:01:18.181Z,6.93
2023-03-30T01:03:49.899Z,7.47
2023-03-30T01:06:20.537Z,7.23
2023-03-30T01:08:48.239Z,5.50
2023-03-30T01:11:15.392Z,5.17
2023-03-30T01:13:49.169Z,6.53
2023-03-30T01:16:44.050Z,5.23
2023-03-30T01:19:39.744Z,7.33
2023-03-30T01:22:31.142Z,5.87
2023-03-30T01:25:27.460Z,8.03
2023-03-30T01:28:43.390Z,7.27
2023-03-30T01:31:52.789Z,4.37
2023-03-30T01:34:39.397Z,5.77
2023-03-30T01:37:34.322Z,5.30
2023-03-30T01:40:16.313Z,5.40
2023-03-30T01:42:46.403Z,5.53
2023-03-30T01:45:23.283Z,5.40
2023-03-30T01:48:07.702Z,5.23
2023-03-30T01:50:42.740Z,5.17
2023-03-30T01:53:20.835Z,5.27
2023-03-30T01:56:13.863Z,5.80
2023-03-30T01:59:05.700Z,5.07
2023-03-30T02:01:38.499Z,5.57
2023-03-30T02:04:10.955Z,5.53
2023-03-30T02:06:52.044Z,5.47
2023-03-30T02:09:24.479Z,5.27
2023-03-30T02:11:53.497Z,6.93
2023-03-30T02:14:27.676Z,5.03
2023-03-30T02:17:03.606Z,7.10
2023-03-30T02:19:30.824Z,6.03
2023-03-30T02:21:58.089Z,4.73
2023-03-30T02:24:30.678Z,5.80
2023-03-30T02:27:00.746Z,7.90
2023-03-30T02:29:29.070Z,4.97
2023-03-30T02:31:59.987Z,4.63
2023-03-30T02:34:50.324Z,5.17
2023-03-30T02:37:42.435Z,6.37
2023-03-30T02:40:28.520Z,5.83
2023-03-30T02:43:48.339Z,5.37
2023-03-30T02:46:40.754Z,5.43
2023-03-30T02:49:40.425Z,6.27
2023-03-30T02:52:58.761Z,6.53
2023-03-30T02:55:54.051Z,6.53
2023-03-30T02:59:03.595Z,7.27
2023-03-30T03:01:44.543Z,5.60
2023-03-30T03:04:13.427Z,6.73
2023-03-30T03:06:42.639Z,5.40
2023-03-30T03:09:10.053Z,6.33
2023-03-30T03:11:37.327Z,9.00
2023-03-30T03:14:04.801Z,5.50
2023-03-30T03:16:32.448Z,5.67
2023-03-30T03:18:59.590Z,5.47
2023-03-30T03:21:26.736Z,5.57
2023-03-30T03:23:54.299Z,5.83
2023-03-30T03:26:21.457Z,8.37
2023-03-30T03:28:48.863Z,6.27
2023-03-30T03:31:16.052Z,6.57
2023-03-30T03:33:43.294Z,5.97
2023-03-30T03:36:10.878Z,7.67
2023-03-30T03:38:40.035Z,6.23
2023-03-30T03:41:07.280Z,5.37
2023-03-30T03:43:34.580Z,9.63
2023-03-30T03:46:01.831Z,18.40
2023-03-30T03:48:29.438Z,10.27
2023-03-30T03:50:58.735Z,7.27
2023-03-30T03:53:28.485Z,7.93
2023-03-30T03:55:56.043Z,6.57
2023-03-30T03:58:25.000Z,6.00
2023-03-30T04:00:58.752Z,5.97
2023-03-30T04:03:26.109Z,7.57
2023-03-30T04:05:58.039Z,7.77
2023-03-30T04:08:25.550Z,16.07
2023-03-30T04:10:52.777Z,14.17
2023-03-30T04:13:19.979Z,11.30
2023-03-30T04:15:47.188Z,21.27
2023-03-30T04:18:14.346Z,10.77
2023-03-30T04:20:41.602Z,9.73
2023-03-30T04:23:08.800Z,10.67
2023-03-30T04:25:35.921Z,13.70
2023-03-30T04:28:03.094Z,8.70
2023-03-30T04:30:30.242Z,8.97
2023-03-30T04:32:57.422Z,12.10
2023-03-30T04:35:24.564Z,9.00
2023-03-30T04:37:51.708Z,10.60
2023-03-30T04:40:18.983Z,7.30
2023-03-30T04:42:46.373Z,13.37
2023-03-30T04:45:13.643Z,9.30
2023-03-30T04:47:41.337Z,8.97
2023-03-30T04:50:09.302Z,10.37
2023-03-30T04:52:36.710Z,12.03
2023-03-30T04:55:04.723Z,14.37
2023-03-30T04:57:31.891Z,12.60
2023-03-30T04:59:59.027Z,13.67
2023-03-30T05:02:26.495Z,15.07
2023-03-30T05:04:53.770Z,14.27
2023-03-30T05:07:21.047Z,23.40
2023-03-30T05:09:48.599Z,25.70
2023-03-30T05:12:16.266Z,12.07
2023-03-30T05:14:43.466Z,21.53
2023-03-30T05:17:10.850Z,11.60
2023-03-30T05:19:38.052Z,11.53
2023-03-30T05:22:05.185Z,14.07
2023-03-30T05:24:32.453Z,14.87
2023-03-30T05:26:59.705Z,19.80
2023-03-30T05:29:27.067Z,29.07
2023-03-30T05:31:54.228Z,22.67
2023-03-30T05:34:21.424Z,21.10
2023-03-30T05:36:48.589Z,14.63
2023-03-30T05:39:15.767Z,35.63
2023-03-30T05:41:42.976Z,25.17
2023-03-30T05:44:10.201Z,34.03
2023-03-30T05:46:37.835Z,23.67
2023-03-30T05:49:05.270Z,13.57
2023-03-30T05:51:32.438Z,17.10
2023-03-30T05:53:59.678Z,14.67
2023-03-30T05:56:26.920Z,13.27
2023-03-30T05:58:54.516Z,15.60
2023-03-30T06:01:21.865Z,10.77
2023-03-30T06:03:49.371Z,16.50
2023-03-30T06:06:16.776Z,10.63
2023-03-30T06:08:44.041Z,10.63
2023-03-30T06:11:11.398Z,10.77
2023-03-30T06:13:38.608Z,14.30
2023-03-30T06:16:06.428Z,22.20
2023-03-30T06:18:34.217Z,18.57
2023-03-30T06:21:01.536Z,15.87
2023-03-30T06:23:29.286Z,11.83
2023-03-30T06:25:56.410Z,13.47
2023-03-30T06:28:23.861Z,16.00
2023-03-30T06:30:51.345Z,13.50
2023-03-30T06:33:19.429Z,7.33
2023-03-30T06:35:52.421Z,15.53
2023-03-30T06:38:22.875Z,15.83
2023-03-30T06:40:50.141Z,14.50
2023-03-30T06:43:24.220Z,27.77
2023-03-30T06:45:57.321Z,19.13
2023-03-30T06:48:25.277Z,15.87
2023-03-30T06:50:54.260Z,25.47
2023-03-30T06:53:24.049Z,29.17
2023-03-30T06:55:57.939Z,25.83
2023-03-30T06:58:27.425Z,26.13
2023-03-30T07:00:55.766Z,27.90
2023-03-30T07:03:23.322Z,15.40
2023-03-30T07:05:52.270Z,15.13
2023-03-30T07:08:20.619Z,13.53
2023-03-30T07:10:48.787Z,19.00
2023-03-30T07:13:17.277Z,13.50
2023-03-30T07:15:46.564Z,15.33
2023-03-30T07:18:14.793Z,21.90
2023-03-30T07:20:42.561Z,39.73
2023-03-30T07:23:09.759Z,26.90
2023-03-30T07:25:37.170Z,19.87
2023-03-30T07:28:05.394Z,15.50
2023-03-30T07:30:35.043Z,15.97
2023-03-30T07:33:02.439Z,14.47
2023-03-30T07:35:29.856Z,12.37
2023-03-30T07:38:03.413Z,16.37
2023-03-30T07:40:31.740Z,13.83
2023-03-30T07:42:59.035Z,20.87
2023-03-30T07:45:26.321Z,11.97
2023-03-30T07:47:53.553Z,11.43
2023-03-30T07:50:20.917Z,10.13
2023-03-30T07:52:48.293Z,14.77
2023-03-30T07:55:15.655Z,16.00
2023-03-30T07:57:43.185Z,10.93
2023-03-30T08:00:11.763Z,12.03
2023-03-30T08:02:39.008Z,11.13
2023-03-30T08:05:06.788Z,10.13
2023-03-30T08:07:34.025Z,13.10
2023-03-30T08:10:01.746Z,10.50
2023-03-30T08:12:28.945Z,15.30
2023-03-30T08:14:56.257Z,14.10
2023-03-30T08:17:23.591Z,12.17
2023-03-30T08:19:50.815Z,15.17
2023-03-30T08:22:18.001Z,12.17
2023-03-30T08:24:45.209Z,17.57
2023-03-30T08:27:12.601Z,9.60
2023-03-30T08:29:39.800Z,14.77
2023-03-30T08:32:07.484Z,11.10
2023-03-30T08:34:36.184Z,18.80
2023-03-30T08:37:04.530Z,18.30
2023-03-30T08:39:31.914Z,11.80
2023-03-30T08:42:23.761Z,16.20
2023-03-30T08:44:57.904Z,11.57
2023-03-30T08:47:42.205Z,13.60
2023-03-30T08:50:17.994Z,15.63
2023-03-30T08:52:46.927Z,13.57
2023-03-30T08:55:20.764Z,13.30
2023-03-30T08:58:12.881Z,14.13
2023-03-30T09:01:18.659Z,17.10
2023-03-30T09:04:22.472Z,19.57
2023-03-30T09:06:56.159Z,13.63
2023-03-30T09:09:29.976Z,15.73
2023-03-30T09:12:28.125Z,16.57
2023-03-30T09:15:04.729Z,15.80
2023-03-30T09:17:39.917Z,18.73
2023-03-30T09:20:26.453Z,24.73
2023-03-30T09:22:58.370Z,19.60
2023-03-30T09:25:56.257Z,16.63
2023-03-30T09:28:31.664Z,18.07
2023-03-30T09:31:14.103Z,18.03
2023-03-30T09:34:05.004Z,19.57
2023-03-30T09:36:59.142Z,16.10
2023-03-30T09:39:31.623Z,17.13
2023-03-30T09:42:30.826Z,15.47
2023-03-30T09:45:20.196Z,17.90
2023-03-30T09:47:47.549Z,14.53
2023-03-30T09:50:26.236Z,14.27
2023-03-30T09:53:07.236Z,15.33
2023-03-30T09:55:37.308Z,16.33
2023-03-30T09:58:19.378Z,15.40
2023-03-30T10:01:05.739Z,16.17
2023-03-30T10:03:33.658Z,14.63
2023-03-30T10:06:26.118Z,13.70
2023-03-30T10:08:55.926Z,18.53
2023-03-30T10:11:34.243Z,17.00
2023-03-30T10:14:01.697Z,18.17
2023-03-30T10:16:32.169Z,22.30
2023-03-30T10:19:13.522Z,17.03
2023-03-30T10:21:42.225Z,22.67
2023-03-30T10:24:15.320Z,18.23
2023-03-30T10:26:47.214Z,17.23
2023-03-30T10:29:19.127Z,19.77
2023-03-30T10:31:50.453Z,17.00
2023-03-30T10:34:42.478Z,17.07
2023-03-30T10:37:25.498Z,19.07
2023-03-30T10:39:53.415Z,16.10
2023-03-30T10:42:27.096Z,15.60
2023-03-30T10:45:03.116Z,21.17
2023-03-30T10:48:22.922Z,21.20
2023-03-30T10:50:59.287Z,13.97
2023-03-30T10:53:35.057Z,31.20
2023-03-30T10:56:32.744Z,17.20
2023-03-30T10:59:08.826Z,14.20
2023-03-30T11:02:01.383Z,13.83
2023-03-30T11:04:34.159Z,12.93
2023-03-30T11:07:02.630Z,14.03
2023-03-30T11:09:38.941Z,15.53
2023-03-30T11:12:20.183Z,15.30
2023-03-30T11:14:55.815Z,13.73
2023-03-30T11:18:04.783Z,18.03
2023-03-30T11:20:41.701Z,13.67
2023-03-30T11:23:45.345Z,14.57
2023-03-30T11:26:25.069Z,17.33
2023-03-30T11:29:19.365Z,17.40
2023-03-30T11:32:10.558Z,14.13
2023-03-30T11:35:10.001Z,13.80
2023-03-30T11:37:48.380Z,13.97
2023-03-30T11:40:26.993Z,15.23
2023-03-30T11:42:55.641Z,14.47
2023-03-30T11:45:41.181Z,14.00
2023-03-30T11:48:33.316Z,14.33
2023-03-30T11:52:10.190Z,13.60
2023-03-30T11:55:18.394Z,17.43
2023-03-30T11:58:06.714Z,19.57
2023-03-30T12:01:13.049Z,21.10
2023-03-30T12:03:49.273Z,12.90
2023-03-30T12:06:34.730Z,13.50
2023-03-30T12:09:39.140Z,13.13
2023-03-30T12:12:11.501Z,14.87
2023-03-30T12:15:18.230Z,34.63
2023-03-30T12:17:54.820Z,14.77
2023-03-30T12:20:53.391Z,16.70
2023-03-30T12:23:42.449Z,10.97
2023-03-30T12:26:28.056Z,32.20
2023-03-30T12:29:44.333Z,12.47
2023-03-30T12:32:07.010Z,11.03
2023-03-30T12:34:37.901Z,13.40
2023-03-30T12:37:23.504Z,11.73
2023-03-30T12:40:05.396Z,12.77
2023-03-30T12:42:36.505Z,15.40
2023-03-30T12:45:15.982Z,11.83
2023-03-30T12:48:03.826Z,17.47
2023-03-30T12:51:07.885Z,13.50
2023-03-30T12:53:56.762Z,10.40
2023-03-30T12:56:59.872Z,12.30
2023-03-30T13:03:04.598Z,15.25
2023-03-30T13:05:41.305Z,10.17
2023-03-30T13:08:19.066Z,10.60
2023-03-30T13:10:46.361Z,10.50
2023-03-30T13:13:47.266Z,13.77
2023-03-30T13:16:14.748Z,11.33
2023-03-30T13:18:55.786Z,17.10
2023-03-30T13:21:25.762Z,11.80
2023-03-30T13:24:21.093Z,10.30
2023-03-30T13:26:49.927Z,16.63
2023-03-30T13:29:17.696Z,14.33
2023-03-30T13:32:33.017Z,55.33
2023-03-30T13:35:40.125Z,16.20
2023-03-30T13:38:29.071Z,14.10
2023-03-30T13:41:17.184Z,14.32
2023-03-30T13:44:05.692Z,11.60
2023-03-30T13:46:45.781Z,14.23
2023-03-30T13:49:55.730Z,10.50
2023-03-30T13:52:33.189Z,12.97
2023-03-30T13:55:05.189Z,12.50
2023-03-30T13:57:40.473Z,14.67
2023-03-30T14:00:33.535Z,10.77
2023-03-30T14:03:38.253Z,13.97
2023-03-30T14:06:24.200Z,22.13
2023-03-30T14:09:06.140Z,11.20
2023-03-30T14:11:39.695Z,13.60
2023-03-30T14:14:07.716Z,15.03
2023-03-30T14:16:40.548Z,14.67
2023-03-30T14:19:20.263Z,18.20
2023-03-30T14:21:48.848Z,16.27
2023-03-30T14:24:30.698Z,12.13
2023-03-30T14:27:14.802Z,15.40
2023-03-30T14:29:48.809Z,12.10
2023-03-30T14:32:19.793Z,12.60
2023-03-30T14:34:52.819Z,13.23
2023-03-30T14:37:23.299Z,13.37
2023-03-30T14:39:56.936Z,14.13
2023-03-30T14:42:32.987Z,15.40
2023-03-30T14:45:01.585Z,12.70
2023-03-30T14:47:29.637Z,11.57
2023-03-30T14:50:05.301Z,13.67
2023-03-30T14:52:40.838Z,12.03
2023-03-30T14:55:24.873Z,14.37
2023-03-30T14:57:53.514Z,12.60
2023-03-30T15:00:23.186Z,13.70
2023-03-30T15:03:01.803Z,11.50
2023-03-30T15:05:38.913Z,15.07
2023-03-30T15:08:12.599Z,12.67
2023-03-30T15:11:12.691Z,13.93
2023-03-30T15:13:47.483Z,10.83
2023-03-30T15:16:29.609Z,13.47
2023-03-30T15:19:25.748Z,13.60
2023-03-30T15:21:58.213Z,18.73
2023-03-30T15:24:32.275Z,13.43
2023-03-30T15:27:06.436Z,12.87
2023-03-30T15:29:34.544Z,12.60
2023-03-30T15:32:47.985Z,14.10
2023-03-30T15:35:15.151Z,14.07
2023-03-30T15:38:15.947Z,12.23
2023-03-30T15:40:49.201Z,10.60
2023-03-30T15:43:24.873Z,14.13
2023-03-30T15:46:15.614Z,11.30
2023-03-30T15:48:53.303Z,11.63
2023-03-30T15:51:29.392Z,13.23
2023-03-30T15:54:14.126Z,10.80
2023-03-30T15:57:21.426Z,10.50
2023-03-30T15:59:55.648Z,10.63
2023-03-30T16:02:31.679Z,11.63
2023-03-30T16:05:04.420Z,14.30
2023-03-30T16:07:33.215Z,12.97
2023-03-30T16:10:00.683Z,17.73
2023-03-30T16:12:31.800Z,13.63
2023-03-30T16:14:59.281Z,11.40
2023-03-30T16:17:26.717Z,14.17
2023-03-30T16:19:54.081Z,10.87
2023-03-30T16:22:21.405Z,15.97
2023-03-30T16:24:48.800Z,12.50
2023-03-30T16:27:16.094Z,13.33
2023-03-30T16:29:43.482Z,14.73
2023-03-30T16:32:10.779Z,12.60
2023-03-30T16:34:37.962Z,13.03
2023-03-30T16:37:05.109Z,14.97
2023-03-30T16:39:32.280Z,13.67
2023-03-30T16:41:59.440Z,15.93
2023-03-30T16:44:26.676Z,52.43
2023-03-30T16:46:54.154Z,41.83
2023-03-30T16:49:26.512Z,24.17
2023-03-30T16:51:57.547Z,25.13
2023-03-30T16:54:32.213Z,26.20
2023-03-30T16:57:01.789Z,21.53
2023-03-30T16:59:31.936Z,30.53
2023-03-30T17:02:00.257Z,34.67
2023-03-30T17:04:27.928Z,27.43
2023-03-30T17:06:55.485Z,15.13
2023-03-30T17:09:23.206Z,13.40
2023-03-30T17:11:51.786Z,12.27
2023-03-30T17:14:19.478Z,13.67
2023-03-30T17:16:46.777Z,11.63
2023-03-30T17:19:14.761Z,12.00
2023-03-30T17:21:42.217Z,13.47
2023-03-30T17:24:09.860Z,10.67
2023-03-30T17:26:37.249Z,12.77
2023-03-30T17:29:04.502Z,11.33
2023-03-30T17:31:31.795Z,13.27
2023-03-30T17:33:58.994Z,12.63
2023-03-30T17:36:27.853Z,10.83
2023-03-30T17:38:55.159Z,12.40
2023-03-30T17:41:23.511Z,13.83
2023-03-30T17:43:50.746Z,15.80
2023-03-30T17:46:19.858Z,12.30
2023-03-30T17:48:48.053Z,14.53
2023-03-30T17:51:15.270Z,12.50
2023-03-30T17:53:42.599Z,15.73
2023-03-30T17:56:13.317Z,14.70
2023-03-30T17:58:40.846Z,19.33
2023-03-30T18:01:10.125Z,13.73
2023-03-30T18:03:37.601Z,12.27
2023-03-30T18:06:05.542Z,12.60
2023-03-30T18:08:32.940Z,19.37
2023-03-30T18:11:01.507Z,13.37
2023-03-30T18:13:30.402Z,17.07
2023-03-30T18:15:59.722Z,15.57
2023-03-30T18:18:30.910Z,18.50
2023-03-30T18:21:03.634Z,13.73
2023-03-30T18:23:32.968Z,16.77
2023-03-30T18:26:00.431Z,14.97
2023-03-30T18:28:28.732Z,15.43
2023-03-30T18:30:56.514Z,15.33
2023-03-30T18:33:24.963Z,12.53
2023-03-30T18:35:55.493Z,18.63
2023-03-30T18:38:23.297Z,15.60
2023-03-30T18:40:52.709Z,12.33
2023-03-30T18:43:19.856Z,16.90
2023-03-30T18:45:49.814Z,14.47
2023-03-30T18:48:21.047Z,17.07
2023-03-30T18:50:52.766Z,16.67
2023-03-30T18:53:26.476Z,15.10
2023-03-30T18:55:58.904Z,14.50
2023-03-30T18:58:29.757Z,19.03
2023-03-30T19:00:59.200Z,16.43
2023-03-30T19:03:29.269Z,19.03
2023-03-30T19:05:56.684Z,16.80
2023-03-30T19:08:26.779Z,20.77
2023-03-30T19:10:57.633Z,12.60
2023-03-30T19:13:26.755Z,18.87
2023-03-30T19:15:54.745Z,18.30
2023-03-30T19:18:22.575Z,17.17
2023-03-30T19:20:51.584Z,16.20
2023-03-30T19:23:19.914Z,14.97
2023-03-30T19:25:47.314Z,16.07
2023-03-30T19:28:15.568Z,13.20
2023-03-30T19:30:43.777Z,12.77
2023-03-30T19:33:14.368Z,12.47
2023-03-30T19:35:45.896Z,13.90
2023-03-30T19:38:15.500Z,12.83
2023-03-30T19:40:43.416Z,14.30
2023-03-30T19:43:11.036Z,13.60
2023-03-30T19:45:38.909Z,14.40
2023-03-30T19:48:06.609Z,13.17
2023-03-30T19:50:34.003Z,14.27
2023-03-30T19:53:01.359Z,14.53
2023-03-30T19:55:28.950Z,16.27
2023-03-30T19:57:56.344Z,13.03
2023-03-30T20:00:23.961Z,15.83
2023-03-30T20:02:54.947Z,13.87
2023-03-30T20:05:24.653Z,12.83
2023-03-30T20:07:52.907Z,14.43
2023-03-30T20:10:24.807Z,14.67
2023-03-30T20:12:53.873Z,15.20
2023-03-30T20:15:24.072Z,12.87
2023-03-30T20:17:51.434Z,13.23
2023-03-30T20:20:18.941Z,16.43
2023-03-30T20:22:46.143Z,16.00
2023-03-30T20:25:14.336Z,12.23
2023-03-30T20:27:41.986Z,13.43
2023-03-30T20:30:10.556Z,16.40
2023-03-30T20:32:37.832Z,15.40
2023-03-30T20:35:06.545Z,15.43
2023-03-30T20:37:34.608Z,13.43
2023-03-30T20:40:03.764Z,13.60
2023-03-30T20:42:33.996Z,16.87
2023-03-30T20:45:01.731Z,18.67
2023-03-30T20:47:29.310Z,13.53
2023-03-30T20:49:56.818Z,16.83
2023-03-30T20:52:24.371Z,16.83
2023-03-30T20:54:51.671Z,17.13
2023-03-30T20:57:20.825Z,14.30
2023-03-30T20:59:48.865Z,20.07
2023-03-30T21:02:17.517Z,14.93
2023-03-30T21:04:45.271Z,17.10
2023-03-30T21:07:13.088Z,15.43
2023-03-30T21:09:40.581Z,16.37
2023-03-30T21:12:08.393Z,17.73
2023-03-30T21:14:35.592Z,13.73
2023-03-30T21:17:02.877Z,18.33
2023-03-30T21:19:30.180Z,15.83
2023-03-30T21:21:57.674Z,13.50
2023-03-30T21:24:25.006Z,13.37
2023-03-30T21:26:52.622Z,12.33
2023-03-30T21:29:19.833Z,13.60
2023-03-30T21:31:47.013Z,15.67
2023-03-30T21:34:14.154Z,13.70
2023-03-30T21:36:41.894Z,14.27
2023-03-30T21:39:09.115Z,16.43
2023-03-30T21:41:36.391Z,11.47
2023-03-30T21:44:03.631Z,13.60
2023-03-30T21:46:30.874Z,16.00
2023-03-30T21:48:58.140Z,13.27
2023-03-30T21:51:29.136Z,13.60
2023-03-30T21:53:57.809Z,13.67
2023-03-30T21:56:28.434Z,16.70
2023-03-30T21:58:55.767Z,15.30
2023-03-30T22:01:23.699Z,12.53
2023-03-30T22:03:52.541Z,13.33
2023-03-30T22:06:21.514Z,13.80
2023-03-30T22:08:49.629Z,10.70
2023-03-30T22:11:23.778Z,11.83
2023-03-30T22:13:52.507Z,14.97
2023-03-30T22:16:26.805Z,14.63
2023-03-30T22:18:55.063Z,15.80
2023-03-30T22:21:26.274Z,17.37
2023-03-30T22:23:53.805Z,14.27
2023-03-30T22:26:21.155Z,16.33
2023-03-30T22:28:48.378Z,14.00
2023-03-30T22:31:16.098Z,13.23
2023-03-30T22:33:43.746Z,15.67
2023-03-30T22:36:27.384Z,13.40
2023-03-30T22:38:57.455Z,14.43
2023-03-30T22:41:25.112Z,12.17
2023-03-30T22:43:55.242Z,11.27
2023-03-30T22:46:24.948Z,14.07
2023-03-30T22:48:52.386Z,11.40
2023-03-30T22:51:19.949Z,12.73
2023-03-30T22:53:47.123Z,12.00
2023-03-30T22:56:14.304Z,12.90
2023-03-30T22:58:41.525Z,16.13
2023-03-30T23:01:08.772Z,10.77
2023-03-30T23:03:37.019Z,13.23
2023-03-30T23:06:04.794Z,18.67
2023-03-30T23:08:32.509Z,18.50
2023-03-30T23:10:59.839Z,15.50
2023-03-30T23:13:27.513Z,15.43
2023-03-30T23:15:54.712Z,16.40
2023-03-30T23:18:21.895Z,11.13
2023-03-30T23:20:49.164Z,15.30
2023-03-30T23:23:16.308Z,16.33
2023-03-30T23:25:52.361Z,15.90
2023-03-30T23:28:19.541Z,16.20
2023-03-30T23:30:46.893Z,19.00
2023-03-30T23:33:14.212Z,17.60
2023-03-30T23:35:48.881Z,12.10
2023-03-30T23:38:16.419Z,17.93
2023-03-30T23:40:43.910Z,16.83
2023-03-30T23:43:11.156Z,16.97
2023-03-30T23:45:38.327Z,18.00
2023-03-30T23:48:05.763Z,18.80
2023-03-30T23:50:35.925Z,20.57
2023-03-30T23:53:03.191Z,16.37
2023-03-30T23:55:30.348Z,18.20
2023-03-30T23:57:57.596Z,18.43
